NCAR-RAP Real-Time Weather Data

Output produced by METARs form (19 June 2019  10:47 UTC)
found at http://weather.rap.ucar.edu/surface/
 
KDAN 190953Z AUTO 00000KT 7SM BKN005 OVC020 21/21 A2986 RMK AO2 SLP101 T02060206
KDAN 190914Z AUTO 00000KT 7SM SCT002 BKN020 21/21 A2986 RMK AO2 T02060206
KDAN 190853Z AUTO 00000KT 3SM BR OVC003 21/21 A2985 RMK AO2 SLP099 T02060206 58026
KDAN 190837Z AUTO 35003KT 1 3/4SM BR OVC004 21/21 A2986 RMK AO2 T02060206
KDAN 190829Z AUTO 00000KT 4SM BR OVC004 21/21 A2987 RMK AO2 T02060206
KDAN 190822Z AUTO 00000KT 2 1/2SM BR OVC004 21/20 A2987 RMK AO2 T02060200
KDAN 190806Z AUTO 00000KT 1/2SM FG VV004 20/20 A2988 RMK AO2 T02000200
KDAN 190753Z AUTO 00000KT 1 1/4SM BR BKN002 20/20 A2989 RMK AO2 SLP109 T02000200
KDAN 190748Z AUTO 00000KT 2 1/2SM BR BKN002 BKN120 21/20 A2989 RMK AO2
KDAN 190735Z AUTO 00000KT 3SM BR BKN001 BKN120 21/21 A2989 RMK AO2 T02060206
KDAN 190722Z AUTO 00000KT 5SM BR SCT001 BKN070 BKN120 21/20 A2989 RMK AO2 T02060200
KDAN 190715Z AUTO 00000KT 5SM BR BKN001 BKN070 21/20 A2989 RMK AO2 T02060200
KDAN 190706Z AUTO 00000KT 6SM BR SCT001 OVC070 21/20 A2990 RMK AO2 T02060200
KDAN 190653Z AUTO 00000KT 6SM BR OVC065 21/20 A2991 RMK AO2 SLP116 T02060200
KDAN 190553Z AUTO 00000KT 10SM FEW046 SCT060 SCT120 21/21 A2993 RMK AO2 SLP124 60004 T02110206 10217 20211 58001
KDAN 190453Z AUTO 28003KT 10SM SCT065 BKN090 BKN110 21/21 A2995 RMK AO2 RAB20E53 SLP130 P0000 T02110206 403000194
KDAN 190353Z AUTO 00000KT 10SM SCT120 21/21 A2995 RMK AO2 RAB05E14 SLP129 P0000 T02110206
KDAN 190309Z AUTO 00000KT 10SM -RA FEW004 SCT100 21/21 A2994 RMK AO2 LTG DSNT SE RAB05 P0000 T02110206
KDAN 190253Z AUTO VRB04KT 10SM FEW110 21/21 A2994 RMK AO2 LTG DSNT SE RAE26 SLP126 P0001 60004 T02110206 58015
KDAN 190224Z AUTO 00000KT 10SM -RA FEW005 SCT080 BKN110 21/21 A2993 RMK AO2 LTG DSNT SE P0001 T02110206
KDAN 190153Z AUTO 00000KT 8SM -RA BKN048 BKN060 OVC110 21/21 A2997 RMK AO2 LTG DSNT SE RAE0059B25 SLP137 P0003 T02110206
KDAN 190053Z AUTO 00000KT 10SM -RA FEW055 BKN100 BKN120 21/21 A2995 RMK AO2 LTG DSNT SE-SW RAE27B50 SLP132 P0000 T02110206
KDAN 182353Z AUTO 00000KT 10SM -RA FEW055 SCT090 BKN110 22/21 A2998 RMK AO2 LTG DSNT E AND SE TSE13 SLP141 P0001 60021 T02170206 10300 20217 51016
KDAN 182335Z AUTO 01006KT 10SM -RA SCT029 BKN120 22/21 A2997 RMK AO2 LTG DSNT ALQDS TSE13 P0001 T02170206
KDAN 182319Z AUTO 29003KT 10SM -RA BKN027 BKN033 OVC044 22/21 A2998 RMK AO2 LTG DSNT ALQDS TSE13 P0001 T02220211
KDAN 182303Z AUTO 27003KT 10SM -TSRA BKN029 BKN041 OVC110 22/21 A2997 RMK AO2 LTG DSNT ALQDS P0000 T02220211
KDAN 182253Z AUTO 29006KT 10SM -TSRA SCT031 BKN080 OVC110 23/21 A2997 RMK AO2 LTG DSNT ALQDS RAE16B43 TSB49 SLP140 P0000 T02280211
KDAN 182225Z AUTO 34006KT 10SM SCT038 BKN055 BKN070 23/21 A2996 RMK AO2 LTG DSNT ALQDS RAE16 P0000 T02280211
KDAN 182153Z AUTO 34009KT 10SM VCTS -RA FEW030 BKN048 OVC110 23/21 A2995 RMK AO2 LTG DSNT ALQDS RAB38 TSE18 SLP131 P0001 T02280211
KDAN 182124Z AUTO 33007KT 10SM VCTS BKN032 BKN055 OVC065 23/22 A2996 RMK AO2 LTG DSNT ALQDS TSE18 T02330217
KDAN 182053Z AUTO VRB03KT 10SM TS FEW027 SCT038 BKN050 23/22 A2993 RMK AO2 LTG DSNT ALQDS RAB12E48 SLP125 P0019 60019 T02330217 55006
KDAN 182036Z AUTO 12004KT 3SM TSRA BR OVC035 23/21 A2993 RMK AO2 LTG DSNT NE AND E AND W RAB12 P0019 T02330211
KDAN 182026Z AUTO VRB04KT 1 3/4SM +TSRA FEW014 BKN034 OVC041 25/21 A2994 RMK AO2 LTG DSNT ALQDS RAB12 P0014 T02500211
KDAN 181953Z AUTO 23009KT 10SM TS FEW033 SCT120 29/22 A2993 RMK AO2 LTG DSNT ALQDS TSB51 SLP122 T02940217
KDAN 181951Z AUTO 23007KT 10SM TS FEW033 29/22 A2993 RMK AO2 LTG DSNT ALQDS TSB51
KDAN 181853Z AUTO 23007KT 10SM BKN034 29/22 A2995 RMK AO2 LTG DSNT ALQDS SLP130 T02890222
KDAN 181753Z AUTO 24006KT 10SM SCT027 BKN034 29/23 A2998 RMK AO2 LTG DSNT E AND SE AND NW SLP140 T02890228 10294 20217 58012
KDAN 181653Z AUTO VRB05KT 10SM SCT028 SCT036 28/22 A3001 RMK AO2 SLP149 T02830222
KDAN 181553Z AUTO 24006KT 10SM FEW027 28/22 A3001 RMK AO2 SLP152 T02830217
KDAN 181453Z AUTO 25011KT 10SM FEW100 28/22 A3001 RMK AO2 SLP152 T02780217 58001
KDAN 181353Z AUTO 23008G17KT 10SM FEW090 26/21 A3002 RMK AO2 SLP155 T02610206